sensor_id;sensor_type;location;lat;lon;timestamp;temperature;humidity
9448;DHT22;4762;48.128;11.376;2023-12-20T00:01:20;5.40;56.10
9448;DHT22;4762;48.128;11.376;2023-12-20T00:03:22;5.70;56.00
9448;DHT22;4762;48.128;11.376;2023-12-20T00:05:24;5.80;55.80
9448;DHT22;4762;48.128;11.376;2023-12-20T00:07:26;5.80;55.80
9448;DHT22;4762;48.128;11.376;2023-12-20T00:09:29;5.70;55.90
9448;DHT22;4762;48.128;11.376;2023-12-20T00:11:31;5.80;55.70
9448;DHT22;4762;48.128;11.376;2023-12-20T00:13:33;5.60;55.90
9448;DHT22;4762;48.128;11.376;2023-12-20T00:15:35;5.70;56.00
9448;DHT22;4762;48.128;11.376;2023-12-20T00:17:37;6.00;55.90
9448;DHT22;4762;48.128;11.376;2023-12-20T00:19:40;5.80;55.50
9448;DHT22;4762;48.128;11.376;2023-12-20T00:21:42;5.80;55.10
9448;DHT22;4762;48.128;11.376;2023-12-20T00:23:44;6.10;54.30
9448;DHT22;4762;48.128;11.376;2023-12-20T00:25:46;5.80;54.40
9448;DHT22;4762;48.128;11.376;2023-12-20T00:27:48;6.10;53.90
9448;DHT22;4762;48.128;11.376;2023-12-20T00:29:51;6.00;53.90
9448;DHT22;4762;48.128;11.376;2023-12-20T00:31:53;6.10;53.50
9448;DHT22;4762;48.128;11.376;2023-12-20T00:33:55;6.20;53.30
9448;DHT22;4762;48.128;11.376;2023-12-20T00:35:57;6.10;53.10
9448;DHT22;4762;48.128;11.376;2023-12-20T00:37:59;5.90;53.10
9448;DHT22;4762;48.128;11.376;2023-12-20T00:40:02;6.10;52.90
9448;DHT22;4762;48.128;11.376;2023-12-20T00:42:04;6.40;52.40
9448;DHT22;4762;48.128;11.376;2023-12-20T00:44:06;6.20;52.30
9448;DHT22;4762;48.128;11.376;2023-12-20T00:46:08;6.00;52.60
9448;DHT22;4762;48.128;11.376;2023-12-20T00:48:11;6.20;52.70
9448;DHT22;4762;48.128;11.376;2023-12-20T00:50:13;6.20;52.90
9448;DHT22;4762;48.128;11.376;2023-12-20T00:52:15;6.20;52.60
9448;DHT22;4762;48.128;11.376;2023-12-20T00:54:17;6.20;52.40
9448;DHT22;4762;48.128;11.376;2023-12-20T00:56:20;6.30;52.00
9448;DHT22;4762;48.128;11.376;2023-12-20T00:58:22;6.20;52.20
9448;DHT22;4762;48.128;11.376;2023-12-20T01:00:24;6.20;52.20
9448;DHT22;4762;48.128;11.376;2023-12-20T01:02:26;6.30;52.20
9448;DHT22;4762;48.128;11.376;2023-12-20T01:04:28;6.30;52.50
9448;DHT22;4762;48.128;11.376;2023-12-20T01:06:30;6.10;53.10
9448;DHT22;4762;48.128;11.376;2023-12-20T01:08:33;6.30;52.60
9448;DHT22;4762;48.128;11.376;2023-12-20T01:10:35;6.20;53.10
9448;DHT22;4762;48.128;11.376;2023-12-20T01:12:37;6.30;53.50
9448;DHT22;4762;48.128;11.376;2023-12-20T01:14:39;6.20;53.30
9448;DHT22;4762;48.128;11.376;2023-12-20T01:16:41;6.20;53.80
9448;DHT22;4762;48.128;11.376;2023-12-20T01:18:44;6.30;53.70
9448;DHT22;4762;48.128;11.376;2023-12-20T01:20:46;6.20;54.30
9448;DHT22;4762;48.128;11.376;2023-12-20T01:22:48;6.30;54.10
9448;DHT22;4762;48.128;11.376;2023-12-20T01:24:51;6.20;54.20
9448;DHT22;4762;48.128;11.376;2023-12-20T01:26:53;6.10;54.30
9448;DHT22;4762;48.128;11.376;2023-12-20T01:28:55;6.20;54.10
9448;DHT22;4762;48.128;11.376;2023-12-20T01:30:57;6.10;54.20
9448;DHT22;4762;48.128;11.376;2023-12-20T01:33:00;6.20;54.60
9448;DHT22;4762;48.128;11.376;2023-12-20T01:35:02;6.20;54.60
9448;DHT22;4762;48.128;11.376;2023-12-20T01:37:04;6.10;54.50
9448;DHT22;4762;48.128;11.376;2023-12-20T01:39:06;6.20;54.90
9448;DHT22;4762;48.128;11.376;2023-12-20T01:41:08;6.20;54.80
9448;DHT22;4762;48.128;11.376;2023-12-20T01:43:11;6.10;54.50
9448;DHT22;4762;48.128;11.376;2023-12-20T01:45:13;6.40;54.40
9448;DHT22;4762;48.128;11.376;2023-12-20T01:47:15;6.20;54.50
9448;DHT22;4762;48.128;11.376;2023-12-20T01:49:17;6.40;54.20
9448;DHT22;4762;48.128;11.376;2023-12-20T01:51:19;6.30;53.80
9448;DHT22;4762;48.128;11.376;2023-12-20T01:53:22;6.40;54.20
9448;DHT22;4762;48.128;11.376;2023-12-20T01:55:24;6.40;53.70
9448;DHT22;4762;48.128;11.376;2023-12-20T01:57:26;6.50;53.90
9448;DHT22;4762;48.128;11.376;2023-12-20T01:59:28;6.50;54.00
9448;DHT22;4762;48.128;11.376;2023-12-20T02:01:30;6.30;54.10
9448;DHT22;4762;48.128;11.376;2023-12-20T02:03:33;6.30;53.90
9448;DHT22;4762;48.128;11.376;2023-12-20T02:05:35;6.50;54.20
9448;DHT22;4762;48.128;11.376;2023-12-20T02:07:37;6.50;54.20
9448;DHT22;4762;48.128;11.376;2023-12-20T02:09:39;6.50;54.10
9448;DHT22;4762;48.128;11.376;2023-12-20T02:11:41;6.20;54.50
9448;DHT22;4762;48.128;11.376;2023-12-20T02:13:44;6.50;54.30
9448;DHT22;4762;48.128;11.376;2023-12-20T02:15:46;6.60;54.80
9448;DHT22;4762;48.128;11.376;2023-12-20T02:17:48;6.60;55.20
9448;DHT22;4762;48.128;11.376;2023-12-20T02:19:50;6.60;55.30
9448;DHT22;4762;48.128;11.376;2023-12-20T02:22:04;6.70;55.70
9448;DHT22;4762;48.128;11.376;2023-12-20T02:23:55;6.70;56.10
9448;DHT22;4762;48.128;11.376;2023-12-20T02:25:57;6.80;56.40
9448;DHT22;4762;48.128;11.376;2023-12-20T02:27:59;6.70;56.80
9448;DHT22;4762;48.128;11.376;2023-12-20T02:30:01;6.80;56.90
9448;DHT22;4762;48.128;11.376;2023-12-20T02:32:03;6.70;57.10
9448;DHT22;4762;48.128;11.376;2023-12-20T02:34:06;6.80;57.40
9448;DHT22;4762;48.128;11.376;2023-12-20T02:36:08;6.60;57.40
9448;DHT22;4762;48.128;11.376;2023-12-20T02:38:10;6.80;57.60
9448;DHT22;4762;48.128;11.376;2023-12-20T02:40:12;6.70;57.60
9448;DHT22;4762;48.128;11.376;2023-12-20T02:42:15;6.60;57.90
9448;DHT22;4762;48.128;11.376;2023-12-20T02:44:17;6.70;57.80
9448;DHT22;4762;48.128;11.376;2023-12-20T02:46:19;6.90;57.90
9448;DHT22;4762;48.128;11.376;2023-12-20T02:48:22;6.90;57.90
9448;DHT22;4762;48.128;11.376;2023-12-20T02:50:23;6.70;58.10
9448;DHT22;4762;48.128;11.376;2023-12-20T02:52:27;6.70;58.20
9448;DHT22;4762;48.128;11.376;2023-12-20T02:54:28;6.50;58.30
9448;DHT22;4762;48.128;11.376;2023-12-20T02:56:30;6.70;58.70
9448;DHT22;4762;48.128;11.376;2023-12-20T02:58:32;6.70;59.30
9448;DHT22;4762;48.128;11.376;2023-12-20T03:00:34;6.80;59.70
9448;DHT22;4762;48.128;11.376;2023-12-20T03:02:36;6.70;60.10
9448;DHT22;4762;48.128;11.376;2023-12-20T03:04:39;6.70;60.50
9448;DHT22;4762;48.128;11.376;2023-12-20T03:06:41;6.80;60.70
9448;DHT22;4762;48.128;11.376;2023-12-20T03:08:43;6.70;60.90
9448;DHT22;4762;48.128;11.376;2023-12-20T03:10:45;6.80;60.90
9448;DHT22;4762;48.128;11.376;2023-12-20T03:12:47;6.80;61.20
9448;DHT22;4762;48.128;11.376;2023-12-20T03:14:50;6.70;61.40
9448;DHT22;4762;48.128;11.376;2023-12-20T03:16:52;6.70;61.90
9448;DHT22;4762;48.128;11.376;2023-12-20T03:18:54;6.80;62.20
9448;DHT22;4762;48.128;11.376;2023-12-20T03:20:56;6.90;62.30
9448;DHT22;4762;48.128;11.376;2023-12-20T03:22:58;6.90;62.60
9448;DHT22;4762;48.128;11.376;2023-12-20T03:25:01;6.60;62.80
9448;DHT22;4762;48.128;11.376;2023-12-20T03:27:03;6.70;63.40
9448;DHT22;4762;48.128;11.376;2023-12-20T03:29:05;6.50;63.80
9448;DHT22;4762;48.128;11.376;2023-12-20T03:31:09;6.70;64.30
9448;DHT22;4762;48.128;11.376;2023-12-20T03:33:10;6.70;64.60
9448;DHT22;4762;48.128;11.376;2023-12-20T03:35:12;6.60;65.10
9448;DHT22;4762;48.128;11.376;2023-12-20T03:37:14;6.60;65.70
9448;DHT22;4762;48.128;11.376;2023-12-20T03:39:16;6.50;65.90
9448;DHT22;4762;48.128;11.376;2023-12-20T03:41:19;6.50;66.30
9448;DHT22;4762;48.128;11.376;2023-12-20T03:43:21;6.50;67.10
9448;DHT22;4762;48.128;11.376;2023-12-20T03:45:23;6.60;68.30
9448;DHT22;4762;48.128;11.376;2023-12-20T03:47:25;6.50;69.30
9448;DHT22;4762;48.128;11.376;2023-12-20T03:49:27;6.40;69.80
9448;DHT22;4762;48.128;11.376;2023-12-20T03:51:30;6.30;70.60
9448;DHT22;4762;48.128;11.376;2023-12-20T03:53:32;6.40;71.50
9448;DHT22;4762;48.128;11.376;2023-12-20T03:55:34;6.30;72.10
9448;DHT22;4762;48.128;11.376;2023-12-20T03:57:36;6.00;72.60
9448;DHT22;4762;48.128;11.376;2023-12-20T03:59:38;6.20;72.90
9448;DHT22;4762;48.128;11.376;2023-12-20T04:01:43;6.00;73.20
9448;DHT22;4762;48.128;11.376;2023-12-20T04:03:45;5.90;73.70
9448;DHT22;4762;48.128;11.376;2023-12-20T04:05:47;6.00;74.30
9448;DHT22;4762;48.128;11.376;2023-12-20T04:07:49;6.10;74.90
9448;DHT22;4762;48.128;11.376;2023-12-20T04:09:51;5.90;75.50
9448;DHT22;4762;48.128;11.376;2023-12-20T04:11:53;5.90;76.10
9448;DHT22;4762;48.128;11.376;2023-12-20T04:13:56;5.90;76.90
9448;DHT22;4762;48.128;11.376;2023-12-20T04:15:58;5.80;77.60
9448;DHT22;4762;48.128;11.376;2023-12-20T04:18:00;5.80;77.70
9448;DHT22;4762;48.128;11.376;2023-12-20T04:20:02;5.80;77.80
9448;DHT22;4762;48.128;11.376;2023-12-20T04:22:05;5.80;77.70
9448;DHT22;4762;48.128;11.376;2023-12-20T04:24:07;5.50;78.00
9448;DHT22;4762;48.128;11.376;2023-12-20T04:26:09;5.70;78.10
9448;DHT22;4762;48.128;11.376;2023-12-20T04:28:11;5.70;77.90
9448;DHT22;4762;48.128;11.376;2023-12-20T04:30:13;5.80;78.00
9448;DHT22;4762;48.128;11.376;2023-12-20T04:32:16;5.70;78.20
9448;DHT22;4762;48.128;11.376;2023-12-20T04:34:18;5.90;78.10
9448;DHT22;4762;48.128;11.376;2023-12-20T04:36:20;5.80;78.10
9448;DHT22;4762;48.128;11.376;2023-12-20T04:38:22;5.70;78.20
9448;DHT22;4762;48.128;11.376;2023-12-20T04:40:24;5.90;78.60
9448;DHT22;4762;48.128;11.376;2023-12-20T04:42:27;5.70;79.30
9448;DHT22;4762;48.128;11.376;2023-12-20T04:44:29;5.60;79.70
9448;DHT22;4762;48.128;11.376;2023-12-20T04:46:31;5.70;79.90
9448;DHT22;4762;48.128;11.376;2023-12-20T04:48:33;5.60;80.50
9448;DHT22;4762;48.128;11.376;2023-12-20T04:50:35;5.60;81.00
9448;DHT22;4762;48.128;11.376;2023-12-20T04:52:38;5.60;81.70
9448;DHT22;4762;48.128;11.376;2023-12-20T04:54:40;5.40;82.20
9448;DHT22;4762;48.128;11.376;2023-12-20T04:56:42;5.20;82.70
9448;DHT22;4762;48.128;11.376;2023-12-20T04:58:44;5.00;83.60
9448;DHT22;4762;48.128;11.376;2023-12-20T05:00:46;5.30;83.70
9448;DHT22;4762;48.128;11.376;2023-12-20T05:02:49;5.00;85.00
9448;DHT22;4762;48.128;11.376;2023-12-20T05:04:51;4.90;85.60
9448;DHT22;4762;48.128;11.376;2023-12-20T05:06:53;5.10;86.60
9448;DHT22;4762;48.128;11.376;2023-12-20T05:08:55;4.90;86.60
9448;DHT22;4762;48.128;11.376;2023-12-20T05:10:57;5.00;86.90
9448;DHT22;4762;48.128;11.376;2023-12-20T05:13:00;4.90;86.80
9448;DHT22;4762;48.128;11.376;2023-12-20T05:15:02;4.90;87.10
9448;DHT22;4762;48.128;11.376;2023-12-20T05:17:04;4.80;87.60
9448;DHT22;4762;48.128;11.376;2023-12-20T05:19:06;4.90;87.60
9448;DHT22;4762;48.128;11.376;2023-12-20T05:21:09;4.80;87.40
9448;DHT22;4762;48.128;11.376;2023-12-20T05:23:11;4.80;87.50
9448;DHT22;4762;48.128;11.376;2023-12-20T05:25:13;4.90;87.70
9448;DHT22;4762;48.128;11.376;2023-12-20T05:27:15;4.60;87.90
9448;DHT22;4762;48.128;11.376;2023-12-20T05:29:17;4.60;88.00
9448;DHT22;4762;48.128;11.376;2023-12-20T05:31:20;4.80;88.10
9448;DHT22;4762;48.128;11.376;2023-12-20T05:33:22;4.50;87.60
9448;DHT22;4762;48.128;11.376;2023-12-20T05:35:24;4.50;87.30
9448;DHT22;4762;48.128;11.376;2023-12-20T05:37:26;4.60;87.50
9448;DHT22;4762;48.128;11.376;2023-12-20T05:39:28;4.60;88.10
9448;DHT22;4762;48.128;11.376;2023-12-20T05:41:31;4.60;87.50
9448;DHT22;4762;48.128;11.376;2023-12-20T05:43:33;4.40;87.90
9448;DHT22;4762;48.128;11.376;2023-12-20T05:45:35;4.50;87.20
9448;DHT22;4762;48.128;11.376;2023-12-20T05:47:37;4.50;86.80
9448;DHT22;4762;48.128;11.376;2023-12-20T05:49:39;4.50;86.50
9448;DHT22;4762;48.128;11.376;2023-12-20T05:51:42;4.60;87.00
9448;DHT22;4762;48.128;11.376;2023-12-20T05:53:44;4.50;86.90
9448;DHT22;4762;48.128;11.376;2023-12-20T05:55:46;4.40;86.90
9448;DHT22;4762;48.128;11.376;2023-12-20T05:57:48;4.40;86.80
9448;DHT22;4762;48.128;11.376;2023-12-20T05:59:50;4.30;86.50
9448;DHT22;4762;48.128;11.376;2023-12-20T06:01:53;4.30;86.50
9448;DHT22;4762;48.128;11.376;2023-12-20T06:03:55;4.50;87.00
9448;DHT22;4762;48.128;11.376;2023-12-20T06:05:57;4.50;86.50
9448;DHT22;4762;48.128;11.376;2023-12-20T06:07:59;4.30;86.90
9448;DHT22;4762;48.128;11.376;2023-12-20T06:10:01;4.40;86.90
9448;DHT22;4762;48.128;11.376;2023-12-20T06:12:04;4.40;87.20
9448;DHT22;4762;48.128;11.376;2023-12-20T06:14:06;4.30;87.20
9448;DHT22;4762;48.128;11.376;2023-12-20T06:16:08;4.30;87.80
9448;DHT22;4762;48.128;11.376;2023-12-20T06:18:11;4.10;87.70
9448;DHT22;4762;48.128;11.376;2023-12-20T06:20:13;4.10;87.70
9448;DHT22;4762;48.128;11.376;2023-12-20T06:22:15;4.10;87.60
9448;DHT22;4762;48.128;11.376;2023-12-20T06:24:17;4.20;88.10
9448;DHT22;4762;48.128;11.376;2023-12-20T06:26:19;4.10;88.10
9448;DHT22;4762;48.128;11.376;2023-12-20T06:28:22;4.00;87.70
9448;DHT22;4762;48.128;11.376;2023-12-20T06:30:24;4.00;87.90
9448;DHT22;4762;48.128;11.376;2023-12-20T06:32:26;4.10;88.00
9448;DHT22;4762;48.128;11.376;2023-12-20T06:34:28;3.90;88.10
9448;DHT22;4762;48.128;11.376;2023-12-20T06:36:30;3.90;88.00
9448;DHT22;4762;48.128;11.376;2023-12-20T06:38:33;4.10;87.90
9448;DHT22;4762;48.128;11.376;2023-12-20T06:40:35;3.80;88.30
9448;DHT22;4762;48.128;11.376;2023-12-20T06:42:37;4.10;88.30
9448;DHT22;4762;48.128;11.376;2023-12-20T06:44:39;3.90;88.30
9448;DHT22;4762;48.128;11.376;2023-12-20T06:46:41;4.00;88.20
9448;DHT22;4762;48.128;11.376;2023-12-20T06:48:44;3.70;87.80
9448;DHT22;4762;48.128;11.376;2023-12-20T06:50:46;3.80;88.20
9448;DHT22;4762;48.128;11.376;2023-12-20T06:52:48;3.90;87.90
9448;DHT22;4762;48.128;11.376;2023-12-20T06:54:51;3.90;88.00
9448;DHT22;4762;48.128;11.376;2023-12-20T06:56:53;4.00;87.70
9448;DHT22;4762;48.128;11.376;2023-12-20T06:58:55;3.90;87.90
9448;DHT22;4762;48.128;11.376;2023-12-20T07:00:57;3.80;87.80
9448;DHT22;4762;48.128;11.376;2023-12-20T07:02:59;3.80;87.70
9448;DHT22;4762;48.128;11.376;2023-12-20T07:05:02;3.90;87.60
9448;DHT22;4762;48.128;11.376;2023-12-20T07:07:04;3.90;87.60
9448;DHT22;4762;48.128;11.376;2023-12-20T07:09:06;3.90;87.10
9448;DHT22;4762;48.128;11.376;2023-12-20T07:11:08;3.80;87.30
9448;DHT22;4762;48.128;11.376;2023-12-20T07:13:11;3.90;86.90
9448;DHT22;4762;48.128;11.376;2023-12-20T07:15:14;3.70;87.20
9448;DHT22;4762;48.128;11.376;2023-12-20T07:17:16;3.80;87.60
9448;DHT22;4762;48.128;11.376;2023-12-20T07:19:18;4.00;87.60
9448;DHT22;4762;48.128;11.376;2023-12-20T07:21:20;3.80;87.80
9448;DHT22;4762;48.128;11.376;2023-12-20T07:23:22;3.80;87.40
9448;DHT22;4762;48.128;11.376;2023-12-20T07:25:25;3.80;87.40
9448;DHT22;4762;48.128;11.376;2023-12-20T07:27:27;3.90;87.80
9448;DHT22;4762;48.128;11.376;2023-12-20T07:29:29;3.90;87.50
9448;DHT22;4762;48.128;11.376;2023-12-20T07:31:31;4.00;87.60
9448;DHT22;4762;48.128;11.376;2023-12-20T07:33:33;3.80;87.40
9448;DHT22;4762;48.128;11.376;2023-12-20T07:35:38;3.90;87.40
9448;DHT22;4762;48.128;11.376;2023-12-20T07:37:40;3.80;87.60
9448;DHT22;4762;48.128;11.376;2023-12-20T07:39:42;3.90;87.80
9448;DHT22;4762;48.128;11.376;2023-12-20T07:41:44;3.70;87.30
9448;DHT22;4762;48.128;11.376;2023-12-20T07:43:46;3.70;87.20
9448;DHT22;4762;48.128;11.376;2023-12-20T07:45:49;3.80;87.40
9448;DHT22;4762;48.128;11.376;2023-12-20T07:47:51;3.60;87.30
9448;DHT22;4762;48.128;11.376;2023-12-20T07:49:53;3.70;87.40
9448;DHT22;4762;48.128;11.376;2023-12-20T07:51:55;3.90;87.10
9448;DHT22;4762;48.128;11.376;2023-12-20T07:53:58;3.90;87.00
9448;DHT22;4762;48.128;11.376;2023-12-20T07:56:00;3.80;87.20
9448;DHT22;4762;48.128;11.376;2023-12-20T07:58:02;3.80;87.10
9448;DHT22;4762;48.128;11.376;2023-12-20T08:00:05;4.00;87.10
9448;DHT22;4762;48.128;11.376;2023-12-20T08:02:08;3.90;87.00
9448;DHT22;4762;48.128;11.376;2023-12-20T08:04:10;4.00;87.50
9448;DHT22;4762;48.128;11.376;2023-12-20T08:06:12;3.90;86.80
9448;DHT22;4762;48.128;11.376;2023-12-20T08:08:15;4.00;87.20
9448;DHT22;4762;48.128;11.376;2023-12-20T08:10:17;3.70;87.00
9448;DHT22;4762;48.128;11.376;2023-12-20T08:12:20;3.80;87.10
9448;DHT22;4762;48.128;11.376;2023-12-20T08:14:22;3.70;87.40
9448;DHT22;4762;48.128;11.376;2023-12-20T08:16:24;3.80;87.30
9448;DHT22;4762;48.128;11.376;2023-12-20T08:18:26;3.70;87.50
9448;DHT22;4762;48.128;11.376;2023-12-20T08:20:28;3.70;87.10
9448;DHT22;4762;48.128;11.376;2023-12-20T08:22:31;3.70;87.10
9448;DHT22;4762;48.128;11.376;2023-12-20T08:24:33;3.80;87.40
9448;DHT22;4762;48.128;11.376;2023-12-20T08:26:36;3.70;87.20
9448;DHT22;4762;48.128;11.376;2023-12-20T08:28:38;3.80;87.50
9448;DHT22;4762;48.128;11.376;2023-12-20T08:30:40;3.80;87.20
9448;DHT22;4762;48.128;11.376;2023-12-20T08:32:43;3.80;87.20
9448;DHT22;4762;48.128;11.376;2023-12-20T08:34:46;3.80;87.40
9448;DHT22;4762;48.128;11.376;2023-12-20T08:36:49;4.00;87.50
9448;DHT22;4762;48.128;11.376;2023-12-20T08:38:50;3.70;87.20
9448;DHT22;4762;48.128;11.376;2023-12-20T08:40:53;3.70;87.10
9448;DHT22;4762;48.128;11.376;2023-12-20T08:42:55;3.90;87.20
9448;DHT22;4762;48.128;11.376;2023-12-20T08:44:57;4.00;87.30
9448;DHT22;4762;48.128;11.376;2023-12-20T08:47:00;3.90;87.60
9448;DHT22;4762;48.128;11.376;2023-12-20T08:49:02;3.90;87.50
9448;DHT22;4762;48.128;11.376;2023-12-20T08:51:04;4.00;87.70
9448;DHT22;4762;48.128;11.376;2023-12-20T08:53:06;3.90;87.70
9448;DHT22;4762;48.128;11.376;2023-12-20T08:55:09;3.90;87.70
9448;DHT22;4762;48.128;11.376;2023-12-20T08:57:11;3.80;87.70
9448;DHT22;4762;48.128;11.376;2023-12-20T08:59:13;4.10;87.40
9448;DHT22;4762;48.128;11.376;2023-12-20T09:01:15;4.00;87.90
9448;DHT22;4762;48.128;11.376;2023-12-20T09:03:18;4.10;87.90
9448;DHT22;4762;48.128;11.376;2023-12-20T09:05:20;3.90;87.50
9448;DHT22;4762;48.128;11.376;2023-12-20T09:07:25;4.00;87.60
9448;DHT22;4762;48.128;11.376;2023-12-20T09:09:27;4.10;87.30
9448;DHT22;4762;48.128;11.376;2023-12-20T09:11:29;4.00;87.50
9448;DHT22;4762;48.128;11.376;2023-12-20T09:13:31;4.10;87.50
9448;DHT22;4762;48.128;11.376;2023-12-20T09:15:34;4.40;87.60
9448;DHT22;4762;48.128;11.376;2023-12-20T09:17:36;4.10;87.20
9448;DHT22;4762;48.128;11.376;2023-12-20T09:19:38;4.00;87.40
9448;DHT22;4762;48.128;11.376;2023-12-20T09:21:40;4.20;87.80
9448;DHT22;4762;48.128;11.376;2023-12-20T09:23:43;4.20;87.80
9448;DHT22;4762;48.128;11.376;2023-12-20T09:25:45;4.10;87.40
9448;DHT22;4762;48.128;11.376;2023-12-20T09:27:47;4.10;87.50
9448;DHT22;4762;48.128;11.376;2023-12-20T09:29:49;4.20;87.40
9448;DHT22;4762;48.128;11.376;2023-12-20T09:31:51;4.10;87.30
9448;DHT22;4762;48.128;11.376;2023-12-20T09:33:54;4.30;87.30
9448;DHT22;4762;48.128;11.376;2023-12-20T09:35:56;4.20;87.60
9448;DHT22;4762;48.128;11.376;2023-12-20T09:37:58;4.10;87.30
9448;DHT22;4762;48.128;11.376;2023-12-20T09:40:00;4.10;87.60
9448;DHT22;4762;48.128;11.376;2023-12-20T09:42:04;4.20;87.20
9448;DHT22;4762;48.128;11.376;2023-12-20T09:44:06;4.30;87.30
9448;DHT22;4762;48.128;11.376;2023-12-20T09:46:08;4.30;87.40
9448;DHT22;4762;48.128;11.376;2023-12-20T09:48:14;4.10;87.10
9448;DHT22;4762;48.128;11.376;2023-12-20T09:50:17;4.20;87.30
9448;DHT22;4762;48.128;11.376;2023-12-20T09:52:22;4.20;87.50
9448;DHT22;4762;48.128;11.376;2023-12-20T09:54:24;4.00;87.30
9448;DHT22;4762;48.128;11.376;2023-12-20T09:56:27;4.30;87.00
9448;DHT22;4762;48.128;11.376;2023-12-20T09:58:29;4.20;87.10
9448;DHT22;4762;48.128;11.376;2023-12-20T10:00:31;4.20;86.90
9448;DHT22;4762;48.128;11.376;2023-12-20T10:02:33;4.40;86.90
9448;DHT22;4762;48.128;11.376;2023-12-20T10:04:35;4.60;86.90
9448;DHT22;4762;48.128;11.376;2023-12-20T10:06:39;4.70;86.70
9448;DHT22;4762;48.128;11.376;2023-12-20T10:08:41;4.60;86.70
9448;DHT22;4762;48.128;11.376;2023-12-20T10:10:43;4.60;87.00
9448;DHT22;4762;48.128;11.376;2023-12-20T10:14:59;4.60;87.10
9448;DHT22;4762;48.128;11.376;2023-12-20T10:17:03;4.80;87.10
9448;DHT22;4762;48.128;11.376;2023-12-20T10:19:04;4.70;87.00
9448;DHT22;4762;48.128;11.376;2023-12-20T10:21:07;4.60;87.30
9448;DHT22;4762;48.128;11.376;2023-12-20T10:23:09;4.60;87.00
9448;DHT22;4762;48.128;11.376;2023-12-20T10:25:11;4.70;87.20
9448;DHT22;4762;48.128;11.376;2023-12-20T10:27:13;4.60;87.80
9448;DHT22;4762;48.128;11.376;2023-12-20T10:29:15;4.60;87.70
9448;DHT22;4762;48.128;11.376;2023-12-20T10:31:27;4.70;87.60
9448;DHT22;4762;48.128;11.376;2023-12-20T10:33:30;4.60;87.90
9448;DHT22;4762;48.128;11.376;2023-12-20T10:35:31;4.80;87.50
9448;DHT22;4762;48.128;11.376;2023-12-20T10:37:36;4.60;87.60
9448;DHT22;4762;48.128;11.376;2023-12-20T10:39:38;4.60;87.60
9448;DHT22;4762;48.128;11.376;2023-12-20T10:41:40;4.60;88.00
9448;DHT22;4762;48.128;11.376;2023-12-20T10:43:42;4.60;87.90
9448;DHT22;4762;48.128;11.376;2023-12-20T10:45:45;4.40;88.00
9448;DHT22;4762;48.128;11.376;2023-12-20T10:47:48;4.60;88.20
9448;DHT22;4762;48.128;11.376;2023-12-20T10:49:50;4.50;87.90
9448;DHT22;4762;48.128;11.376;2023-12-20T10:51:52;4.40;88.20
9448;DHT22;4762;48.128;11.376;2023-12-20T10:53:54;4.50;88.00
9448;DHT22;4762;48.128;11.376;2023-12-20T10:55:56;4.70;87.80
9448;DHT22;4762;48.128;11.376;2023-12-20T10:58:03;4.50;87.90
9448;DHT22;4762;48.128;11.376;2023-12-20T11:00:04;4.70;87.80
9448;DHT22;4762;48.128;11.376;2023-12-20T11:02:06;4.60;87.80
9448;DHT22;4762;48.128;11.376;2023-12-20T11:04:09;4.50;87.70
9448;DHT22;4762;48.128;11.376;2023-12-20T11:06:25;4.50;87.80
9448;DHT22;4762;48.128;11.376;2023-12-20T11:08:36;4.50;87.80
9448;DHT22;4762;48.128;11.376;2023-12-20T11:10:43;4.70;87.60
9448;DHT22;4762;48.128;11.376;2023-12-20T11:12:48;4.60;87.50
9448;DHT22;4762;48.128;11.376;2023-12-20T11:14:54;4.60;87.50
9448;DHT22;4762;48.128;11.376;2023-12-20T11:19:04;4.70;87.30
9448;DHT22;4762;48.128;11.376;2023-12-20T11:21:04;4.80;87.10
9448;DHT22;4762;48.128;11.376;2023-12-20T11:23:06;5.00;87.30
9448;DHT22;4762;48.128;11.376;2023-12-20T11:25:09;5.00;87.10
9448;DHT22;4762;48.128;11.376;2023-12-20T11:27:10;5.10;86.70
9448;DHT22;4762;48.128;11.376;2023-12-20T11:31:27;5.10;86.70
9448;DHT22;4762;48.128;11.376;2023-12-20T11:33:36;5.00;86.80
9448;DHT22;4762;48.128;11.376;2023-12-20T11:35:32;5.10;86.80
9448;DHT22;4762;48.128;11.376;2023-12-20T11:37:36;5.20;86.40
9448;DHT22;4762;48.128;11.376;2023-12-20T11:39:38;5.20;86.40
9448;DHT22;4762;48.128;11.376;2023-12-20T11:41:40;5.30;85.40
9448;DHT22;4762;48.128;11.376;2023-12-20T11:43:42;5.30;85.70
9448;DHT22;4762;48.128;11.376;2023-12-20T11:45:49;5.30;85.50
9448;DHT22;4762;48.128;11.376;2023-12-20T11:47:53;5.30;85.40
9448;DHT22;4762;48.128;11.376;2023-12-20T11:49:55;5.20;84.80
9448;DHT22;4762;48.128;11.376;2023-12-20T11:51:57;5.20;84.90
9448;DHT22;4762;48.128;11.376;2023-12-20T11:54:00;5.10;85.00
9448;DHT22;4762;48.128;11.376;2023-12-20T11:56:03;5.40;85.20
9448;DHT22;4762;48.128;11.376;2023-12-20T11:58:05;5.30;85.00
9448;DHT22;4762;48.128;11.376;2023-12-20T12:00:08;5.10;84.20
9448;DHT22;4762;48.128;11.376;2023-12-20T12:02:11;5.30;84.20
9448;DHT22;4762;48.128;11.376;2023-12-20T12:04:12;5.30;83.30
9448;DHT22;4762;48.128;11.376;2023-12-20T12:06:14;5.30;83.40
9448;DHT22;4762;48.128;11.376;2023-12-20T12:08:17;5.50;83.60
9448;DHT22;4762;48.128;11.376;2023-12-20T12:10:19;5.40;83.60
9448;DHT22;4762;48.128;11.376;2023-12-20T12:12:21;5.50;83.60
9448;DHT22;4762;48.128;11.376;2023-12-20T12:14:24;5.30;83.40
9448;DHT22;4762;48.128;11.376;2023-12-20T12:16:26;5.20;83.70
9448;DHT22;4762;48.128;11.376;2023-12-20T12:18:28;5.30;83.40
9448;DHT22;4762;48.128;11.376;2023-12-20T12:20:31;5.10;84.10
9448;DHT22;4762;48.128;11.376;2023-12-20T12:22:33;5.20;83.90
9448;DHT22;4762;48.128;11.376;2023-12-20T12:24:36;5.20;83.90
9448;DHT22;4762;48.128;11.376;2023-12-20T12:26:38;5.00;84.30
9448;DHT22;4762;48.128;11.376;2023-12-20T12:28:41;5.20;84.10
9448;DHT22;4762;48.128;11.376;2023-12-20T12:30:42;5.20;84.10
9448;DHT22;4762;48.128;11.376;2023-12-20T12:32:45;5.30;84.00
9448;DHT22;4762;48.128;11.376;2023-12-20T12:34:47;5.00;84.30
9448;DHT22;4762;48.128;11.376;2023-12-20T12:36:51;5.20;84.40
9448;DHT22;4762;48.128;11.376;2023-12-20T12:38:56;5.20;84.20
9448;DHT22;4762;48.128;11.376;2023-12-20T12:40:56;5.20;84.00
9448;DHT22;4762;48.128;11.376;2023-12-20T12:43:00;5.10;84.30
9448;DHT22;4762;48.128;11.376;2023-12-20T12:45:02;5.00;84.10
9448;DHT22;4762;48.128;11.376;2023-12-20T12:47:04;5.40;83.80
9448;DHT22;4762;48.128;11.376;2023-12-20T12:49:06;5.10;83.40
9448;DHT22;4762;48.128;11.376;2023-12-20T12:51:09;5.20;83.90
9448;DHT22;4762;48.128;11.376;2023-12-20T12:53:11;5.40;84.00
9448;DHT22;4762;48.128;11.376;2023-12-20T12:55:13;5.40;83.70
9448;DHT22;4762;48.128;11.376;2023-12-20T12:57:15;5.40;83.80
9448;DHT22;4762;48.128;11.376;2023-12-20T12:59:18;5.30;83.90
9448;DHT22;4762;48.128;11.376;2023-12-20T13:01:21;5.10;84.30
9448;DHT22;4762;48.128;11.376;2023-12-20T13:03:23;5.10;84.50
9448;DHT22;4762;48.128;11.376;2023-12-20T13:05:25;5.00;84.70
9448;DHT22;4762;48.128;11.376;2023-12-20T13:07:27;4.60;84.90
9448;DHT22;4762;48.128;11.376;2023-12-20T13:09:29;4.60;85.00
9448;DHT22;4762;48.128;11.376;2023-12-20T13:11:32;4.50;85.20
9448;DHT22;4762;48.128;11.376;2023-12-20T13:13:34;4.30;84.80
9448;DHT22;4762;48.128;11.376;2023-12-20T13:15:36;4.20;84.40
9448;DHT22;4762;48.128;11.376;2023-12-20T13:17:39;4.10;84.30
9448;DHT22;4762;48.128;11.376;2023-12-20T13:19:41;3.80;84.00
9448;DHT22;4762;48.128;11.376;2023-12-20T13:21:44;3.80;83.80
9448;DHT22;4762;48.128;11.376;2023-12-20T13:23:47;4.10;83.50
9448;DHT22;4762;48.128;11.376;2023-12-20T13:25:51;4.10;83.50